Time;durP1;ratioP1;P1;durP2;ratioP2;P2;SDS_P1;SDS_P2;PMS_P1;PMS_P2;Temp;Humidity;BMP_temperature;BMP_pressure;BME280_temperature;BME280_humidity;BME280_pressure;Samples;Min_cycle;Max_cycle;Signal;HPM_P1;HPM_P2
2023/08/24 00:00:32;;;;;;;6.25;4.22;;;23.40;99.90;;;;;;4999982;28;20096;-86
2023/08/24 00:02:58;;;;;;;7.75;4.15;;;23.40;99.90;;;;;;4999456;28;20037;-86
2023/08/24 00:05:23;;;;;;;4.57;3.70;;;23.40;99.90;;;;;;4999447;28;20018;-86
2023/08/24 00:07:49;;;;;;;9.10;4.07;;;23.30;99.90;;;;;;5016917;28;20059;-86
2023/08/24 00:10:15;;;;;;;7.72;3.88;;;23.30;99.90;;;;;;4999634;28;20026;-85
2023/08/24 00:12:41;;;;;;;7.60;3.97;;;23.20;99.90;;;;;;5016775;28;20030;-85
2023/08/24 00:15:08;;;;;;;6.68;3.70;;;23.30;99.90;;;;;;5016789;28;20034;-85
2023/08/24 00:17:34;;;;;;;5.70;4.60;;;23.30;99.90;;;;;;5016928;28;20033;-85
2023/08/24 00:20:04;;;;;;;8.40;4.15;;;23.30;99.90;;;;;;4999719;28;20084;-86
2023/08/24 00:22:30;;;;;;;4.35;3.63;;;23.30;99.90;;;;;;4999372;28;20025;-87
2023/08/24 00:24:55;;;;;;;6.38;3.60;;;23.20;99.90;;;;;;4999645;28;20033;-87
2023/08/24 00:27:21;;;;;;;5.05;3.78;;;23.20;99.90;;;;;;5015996;28;20057;-86
2023/08/24 00:29:46;;;;;;;5.50;3.83;;;23.10;99.90;;;;;;4999265;28;20032;-86
2023/08/24 00:32:12;;;;;;;6.63;3.78;;;23.10;99.90;;;;;;4998072;28;20069;-86
2023/08/24 00:34:37;;;;;;;8.60;4.03;;;23.10;99.90;;;;;;5016350;28;20026;-86
2023/08/24 00:37:03;;;;;;;5.93;3.92;;;23.10;99.90;;;;;;4998879;28;20394;-86
2023/08/24 00:39:29;;;;;;;6.63;3.95;;;23.10;99.90;;;;;;5016446;28;20025;-86
2023/08/24 00:41:55;;;;;;;5.05;3.60;;;23.00;99.90;;;;;;5016776;28;20107;-87
2023/08/24 00:44:20;;;;;;;6.18;3.63;;;23.00;99.90;;;;;;5015917;28;20026;-86
2023/08/24 00:46:46;;;;;;;7.03;3.60;;;23.00;99.90;;;;;;4998565;28;20030;-85
2023/08/24 00:49:12;;;;;;;7.85;3.75;;;22.90;99.90;;;;;;5016212;28;20109;-85
2023/08/24 00:51:38;;;;;;;4.25;3.42;;;22.90;99.90;;;;;;5016163;28;20030;-85
2023/08/24 00:54:04;;;;;;;5.53;3.63;;;22.90;99.90;;;;;;4998749;28;20030;-87
2023/08/24 00:56:30;;;;;;;4.95;3.70;;;22.90;99.90;;;;;;4998733;28;20494;-87
2023/08/24 00:58:57;;;;;;;5.50;3.80;;;22.90;99.90;;;;;;4999109;28;20034;-87
2023/08/24 01:01:24;;;;;;;5.55;4.05;;;22.90;99.90;;;;;;4997551;28;20022;-85
2023/08/24 01:03:50;;;;;;;6.68;3.47;;;22.90;99.90;;;;;;4998848;28;20033;-86
2023/08/24 01:06:15;;;;;;;4.18;3.15;;;22.90;99.90;;;;;;5015388;28;20029;-86
2023/08/24 01:08:42;;;;;;;5.43;3.45;;;22.90;99.90;;;;;;5015872;28;20034;-86
2023/08/24 01:11:37;;;;;;;5.70;3.30;;;22.90;99.90;;;;;;4998283;28;20026;-85
2023/08/24 01:14:09;;;;;;;6.82;3.60;;;22.90;99.90;;;;;;4998613;28;20026;-86
2023/08/24 01:16:40;;;;;;;4.43;3.25;;;22.90;99.90;;;;;;4998326;28;20117;-86
2023/08/24 01:19:10;;;;;;;3.50;3.20;;;22.80;99.90;;;;;;4998549;28;20037;-86
2023/08/24 01:21:36;;;;;;;8.40;3.30;;;22.80;99.90;;;;;;4998577;28;20046;-87
2023/08/24 01:24:18;;;;;;;5.30;3.40;;;22.80;99.90;;;;;;4998336;28;20118;-86
2023/08/24 01:26:45;;;;;;;6.88;3.20;;;22.80;99.90;;;;;;5015698;28;20083;-86
2023/08/24 01:29:11;;;;;;;5.57;3.50;;;22.80;99.90;;;;;;4997547;28;20057;-86
2023/08/24 01:31:37;;;;;;;6.13;3.75;;;22.80;99.90;;;;;;4998139;28;20391;-87
2023/08/24 01:34:03;;;;;;;5.28;3.58;;;22.70;99.90;;;;;;5015219;28;20061;-87
2023/08/24 01:36:29;;;;;;;6.30;3.70;;;22.70;99.90;;;;;;4997780;28;20029;-86
2023/08/24 01:39:30;;;;;;;5.38;4.05;;;22.60;99.90;;;;;;5015446;28;20065;-86
2023/08/24 01:42:00;;;;;;;4.35;3.72;;;22.50;99.90;;;;;;4998074;28;20048;-87
2023/08/24 01:44:28;;;;;;;6.78;4.15;;;22.50;99.90;;;;;;4997651;28;20064;-87
2023/08/24 01:46:55;;;;;;;6.22;3.47;;;22.50;99.90;;;;;;4997494;28;20033;-87
2023/08/24 01:49:22;;;;;;;4.13;3.58;;;22.50;99.90;;;;;;4997639;28;20026;-86
2023/08/24 01:51:49;;;;;;;4.22;3.30;;;22.50;99.90;;;;;;5015125;28;20030;-89
2023/08/24 01:54:14;;;;;;;4.80;3.60;;;22.50;99.90;;;;;;4997114;28;20026;-89
2023/08/24 01:56:40;;;;;;;6.57;4.18;;;22.50;99.90;;;;;;4997565;28;20033;-89
2023/08/24 01:59:06;;;;;;;5.05;3.80;;;22.50;99.90;;;;;;4997756;28;20450;-89
2023/08/24 02:01:31;;;;;;;10.00;3.70;;;22.50;99.90;;;;;;4997350;28;20037;-88
2023/08/24 02:03:57;;;;;;;5.07;3.58;;;22.50;99.90;;;;;;5015117;28;20026;-89
2023/08/24 02:06:22;;;;;;;3.97;3.45;;;22.40;99.90;;;;;;4997445;28;20433;-89
2023/08/24 02:08:48;;;;;;;5.90;3.40;;;22.40;99.90;;;;;;4997382;28;20034;-89
2023/08/24 02:11:13;;;;;;;3.75;3.20;;;22.40;99.90;;;;;;4996716;28;20030;-89
2023/08/24 02:13:39;;;;;;;5.55;3.50;;;22.40;99.90;;;;;;4997561;28;20474;-90
2023/08/24 02:16:06;;;;;;;5.57;3.20;;;22.30;99.90;;;;;;4997555;28;20378;-89
2023/08/24 02:18:32;;;;;;;3.90;3.25;;;22.30;99.90;;;;;;5014424;28;20037;-90
2023/08/24 02:20:58;;;;;;;4.53;3.33;;;22.30;99.90;;;;;;4997751;28;20026;-90
2023/08/24 02:23:23;;;;;;;3.55;2.95;;;22.30;99.90;;;;;;4996863;28;20040;-89
2023/08/24 02:25:49;;;;;;;5.50;3.50;;;22.30;99.90;;;;;;4997499;28;20034;-90
2023/08/24 02:28:14;;;;;;;5.20;3.60;;;22.30;99.90;;;;;;4996764;28;20037;-89
2023/08/24 02:30:40;;;;;;;5.00;3.03;;;22.30;99.90;;;;;;4997373;28;20098;-88
2023/08/24 02:33:06;;;;;;;5.90;3.35;;;22.30;99.90;;;;;;4997349;28;20030;-89
2023/08/24 02:35:31;;;;;;;3.50;3.03;;;22.20;99.90;;;;;;5014427;28;20030;-89
2023/08/24 02:37:57;;;;;;;5.55;3.30;;;22.20;99.90;;;;;;5014859;28;20033;-89
2023/08/24 02:40:23;;;;;;;4.07;3.35;;;22.10;99.90;;;;;;5014077;28;20022;-88
2023/08/24 02:42:49;;;;;;;5.07;3.03;;;22.10;99.90;;;;;;4997200;28;20057;-89
2023/08/24 02:45:14;;;;;;;6.03;3.20;;;22.00;99.90;;;;;;4997109;28;20025;-87
2023/08/24 02:47:40;;;;;;;6.18;3.75;;;22.00;99.90;;;;;;4997024;28;20068;-89
2023/08/24 02:50:06;;;;;;;5.03;2.97;;;21.90;99.90;;;;;;4997273;28;20034;-88
2023/08/24 02:52:32;;;;;;;4.18;3.15;;;21.90;99.90;;;;;;4996851;28;20022;-89
2023/08/24 02:54:58;;;;;;;7.20;3.30;;;21.90;99.90;;;;;;4997286;28;20029;-89
2023/08/24 02:57:23;;;;;;;5.50;2.90;;;21.90;99.90;;;;;;5014130;28;20037;-89
2023/08/24 02:59:49;;;;;;;5.10;3.10;;;21.90;99.90;;;;;;4997555;28;20483;-89
2023/08/24 03:02:15;;;;;;;6.75;3.22;;;21.90;99.90;;;;;;5013740;28;20080;-87
2023/08/24 03:04:40;;;;;;;6.68;3.00;;;21.90;99.90;;;;;;4997203;28;20033;-88
2023/08/24 03:07:08;;;;;;;7.63;2.90;;;21.90;99.90;;;;;;4997077;28;20033;-88
2023/08/24 03:09:35;;;;;;;5.28;3.13;;;21.90;99.90;;;;;;4996709;28;20128;-89
2023/08/24 03:12:00;;;;;;;5.13;3.25;;;21.90;99.90;;;;;;4997015;28;20498;-89
2023/08/24 03:14:26;;;;;;;4.35;3.00;;;21.90;99.90;;;;;;5013948;28;20034;-89
2023/08/24 03:16:51;;;;;;;4.78;3.17;;;21.90;99.90;;;;;;5014467;28;20399;-88
2023/08/24 03:19:18;;;;;;;5.97;3.10;;;21.90;99.90;;;;;;4996591;28;20034;-88
2023/08/24 03:21:44;;;;;;;7.00;3.20;;;21.90;99.90;;;;;;4997160;28;20022;-89
2023/08/24 03:24:09;;;;;;;4.90;3.10;;;21.90;99.90;;;;;;4999146;28;20057;-88
2023/08/24 03:26:35;;;;;;;6.35;3.47;;;21.90;99.90;;;;;;5000414;28;20080;-89
2023/08/24 03:29:00;;;;;;;3.78;3.00;;;21.80;99.90;;;;;;5018022;28;20034;-88
2023/08/24 03:31:26;;;;;;;4.53;2.95;;;21.80;99.90;;;;;;5000097;28;20034;-89
2023/08/24 03:33:52;;;;;;;4.05;2.72;;;21.80;99.90;;;;;;5000125;28;20026;-88
2023/08/24 03:36:18;;;;;;;5.90;3.30;;;21.80;99.90;;;;;;5017357;28;20030;-86
2023/08/24 03:38:45;;;;;;;4.55;3.47;;;21.80;99.90;;;;;;5017915;28;20030;-87
2023/08/24 03:41:10;;;;;;;5.10;2.97;;;21.80;99.90;;;;;;5017649;28;20072;-86
2023/08/24 03:43:37;;;;;;;3.33;2.78;;;21.80;99.90;;;;;;5017275;28;20447;-87
2023/08/24 03:46:04;;;;;;;3.83;3.03;;;21.80;99.90;;;;;;5000359;28;20022;-87
2023/08/24 03:48:29;;;;;;;6.50;3.30;;;21.70;99.90;;;;;;4999893;28;20038;-86
2023/08/24 03:50:56;;;;;;;7.80;2.85;;;21.60;99.90;;;;;;5000384;28;20113;-87
2023/08/24 03:53:22;;;;;;;4.30;3.35;;;21.60;99.90;;;;;;4999433;28;20030;-86
2023/08/24 03:55:49;;;;;;;3.85;3.15;;;21.60;99.90;;;;;;5017535;28;20026;-86
2023/08/24 03:58:14;;;;;;;4.60;3.25;;;21.60;99.90;;;;;;5000049;28;20030;-86
2023/08/24 04:00:41;;;;;;;7.28;3.30;;;21.60;99.90;;;;;;4999558;28;20022;-86
2023/08/24 04:03:07;;;;;;;6.03;3.13;;;21.60;99.90;;;;;;4999920;28;20052;-87
2023/08/24 04:05:33;;;;;;;6.38;3.30;;;21.60;99.90;;;;;;5016520;28;20033;-87
2023/08/24 04:08:00;;;;;;;4.05;3.00;;;21.60;99.90;;;;;;5016972;28;20034;-87
2023/08/24 04:10:26;;;;;;;5.60;3.03;;;21.70;99.90;;;;;;4999274;28;20030;-87
2023/08/24 04:12:52;;;;;;;5.38;2.95;;;21.60;99.90;;;;;;4999672;28;20109;-87
2023/08/24 04:15:18;;;;;;;4.32;3.20;;;21.70;99.90;;;;;;5016594;28;20419;-86
2023/08/24 04:17:43;;;;;;;7.63;3.47;;;21.60;99.90;;;;;;4999913;28;20076;-86
2023/08/24 04:20:10;;;;;;;6.63;3.50;;;21.70;99.90;;;;;;4999514;28;20076;-87
2023/08/24 04:22:36;;;;;;;7.60;3.33;;;21.70;99.90;;;;;;4998921;28;20077;-87
2023/08/24 04:25:01;;;;;;;5.50;3.50;;;21.70;99.90;;;;;;5016860;28;20053;-87
2023/08/24 04:27:27;;;;;;;4.75;3.20;;;21.60;99.90;;;;;;4999059;28;20038;-88
2023/08/24 04:29:53;;;;;;;4.50;3.08;;;21.70;99.90;;;;;;5016713;28;20033;-85
2023/08/24 04:32:19;;;;;;;7.07;3.03;;;21.70;99.90;;;;;;4999150;28;20475;-85
2023/08/24 04:34:44;;;;;;;7.68;3.17;;;21.60;99.90;;;;;;4999094;28;20034;-85
2023/08/24 04:37:10;;;;;;;5.15;3.35;;;21.60;99.90;;;;;;5016760;28;20065;-84
2023/08/24 04:39:35;;;;;;;5.95;3.55;;;21.60;99.90;;;;;;4998197;28;20022;-85
2023/08/24 04:42:02;;;;;;;8.55;3.60;;;21.70;99.90;;;;;;4998956;28;20061;-84
2023/08/24 04:44:28;;;;;;;5.40;3.42;;;21.70;99.90;;;;;;4998718;28;20029;-85
2023/08/24 04:46:53;;;;;;;6.05;3.50;;;21.70;99.90;;;;;;4999182;28;20033;-85
2023/08/24 04:49:19;;;;;;;5.97;3.45;;;21.60;99.90;;;;;;4998655;28;20026;-86
2023/08/24 04:51:45;;;;;;;6.22;3.90;;;21.70;99.90;;;;;;4999661;28;20026;-85
2023/08/24 04:54:10;;;;;;;5.05;3.83;;;21.60;99.90;;;;;;4999244;28;20418;-85
2023/08/24 04:56:36;;;;;;;6.43;3.45;;;21.70;99.90;;;;;;4998617;28;20065;-85
2023/08/24 04:59:02;;;;;;;5.43;3.65;;;21.70;99.90;;;;;;5016322;28;20065;-85
2023/08/24 05:01:31;;;;;;;6.97;3.50;;;21.70;99.90;;;;;;4998278;28;20175;-85
2023/08/24 05:03:57;;;;;;;6.78;3.85;;;21.70;99.90;;;;;;5015860;28;20033;-85
2023/08/24 05:06:22;;;;;;;7.25;3.60;;;21.80;99.90;;;;;;4998326;28;20026;-85
2023/08/24 05:08:48;;;;;;;6.25;3.38;;;21.80;99.90;;;;;;5015782;28;20053;-85
2023/08/24 05:11:18;;;;;;;6.82;4.13;;;21.80;99.90;;;;;;4998592;28;20057;-85
2023/08/24 05:13:44;;;;;;;8.95;4.07;;;21.80;99.90;;;;;;5015533;28;20463;-85
2023/08/24 05:16:10;;;;;;;4.55;3.47;;;21.80;99.90;;;;;;4998275;28;20057;-85
2023/08/24 05:18:36;;;;;;;7.18;3.60;;;21.90;99.90;;;;;;4998013;28;20044;-86
2023/08/24 05:21:05;;;;;;;4.22;3.28;;;21.90;99.90;;;;;;4998281;28;20109;-85
2023/08/24 05:23:32;;;;;;;9.32;3.65;;;21.90;99.90;;;;;;4997453;28;20080;-85
2023/08/24 05:25:58;;;;;;;4.63;3.65;;;22.00;99.90;;;;;;4998212;28;20030;-84
2023/08/24 05:28:28;;;;;;;6.78;3.85;;;22.00;99.90;;;;;;5014908;28;20038;-85
2023/08/24 05:30:54;;;;;;;4.82;3.30;;;22.00;99.90;;;;;;5015698;28;20025;-84
2023/08/24 05:33:21;;;;;;;4.47;3.70;;;22.10;99.90;;;;;;5015295;28;20022;-84
2023/08/24 05:35:47;;;;;;;6.03;3.40;;;22.10;99.90;;;;;;4997999;28;20030;-84
2023/08/24 05:38:13;;;;;;;7.47;3.42;;;22.20;99.90;;;;;;4997842;28;20055;-85
2023/08/24 05:40:39;;;;;;;4.45;3.35;;;22.20;99.90;;;;;;5014987;28;20081;-85
2023/08/24 05:43:05;;;;;;;4.65;3.13;;;22.20;99.90;;;;;;4997969;28;20084;-85
2023/08/24 05:45:31;;;;;;;3.85;3.15;;;22.20;99.90;;;;;;4997061;28;20111;-85
2023/08/24 05:47:56;;;;;;;6.05;3.17;;;22.30;99.90;;;;;;5015301;28;20105;-85
2023/08/24 05:50:22;;;;;;;5.95;3.50;;;22.30;99.90;;;;;;5015522;28;20038;-85
2023/08/24 05:52:47;;;;;;;4.53;3.38;;;22.30;99.90;;;;;;5015058;28;20036;-85
2023/08/24 05:55:13;;;;;;;6.55;3.20;;;22.30;99.90;;;;;;4998351;28;20549;-85
2023/08/24 05:57:39;;;;;;;4.97;2.90;;;22.20;99.90;;;;;;5015073;28;20038;-84
2023/08/24 06:00:09;;;;;;;5.70;3.30;;;22.10;99.90;;;;;;4997675;28;20052;-86
2023/08/24 06:02:35;;;;;;;10.03;3.73;;;22.10;99.90;;;;;;4996834;28;20029;-85
2023/08/24 06:05:01;;;;;;;3.20;2.90;;;22.10;99.90;;;;;;4997663;28;20317;-85
2023/08/24 06:07:27;;;;;;;6.07;3.05;;;22.00;99.90;;;;;;5014327;28;20030;-84
2023/08/24 06:09:52;;;;;;;5.80;2.72;;;22.00;99.90;;;;;;5015103;28;20459;-85
2023/08/24 06:12:18;;;;;;;3.95;3.25;;;22.00;99.90;;;;;;4997585;28;20026;-85
2023/08/24 06:14:43;;;;;;;7.22;2.67;;;22.10;99.90;;;;;;5014646;28;20094;-85
2023/08/24 06:17:09;;;;;;;4.35;3.05;;;22.10;99.90;;;;;;5014943;28;20499;-85
2023/08/24 06:19:35;;;;;;;5.22;2.50;;;22.00;99.90;;;;;;4996855;28;20164;-85
2023/08/24 06:22:00;;;;;;;5.68;2.80;;;22.00;99.90;;;;;;5014752;28;20022;-86
2023/08/24 06:24:26;;;;;;;4.00;2.60;;;22.00;99.90;;;;;;4997303;28;20466;-84
2023/08/24 06:26:51;;;;;;;5.68;2.70;;;22.10;99.90;;;;;;5014469;28;20034;-86
2023/08/24 06:29:17;;;;;;;5.28;2.67;;;22.10;99.90;;;;;;4997331;28;20038;-86
2023/08/24 06:31:42;;;;;;;6.25;2.58;;;22.20;99.90;;;;;;5014218;28;20030;-85
2023/08/24 06:34:08;;;;;;;1.95;1.70;;;22.20;99.90;;;;;;5015142;28;20430;-86
2023/08/24 06:36:34;;;;;;;3.33;2.30;;;22.30;99.90;;;;;;5014556;28;20022;-86
2023/08/24 06:38:59;;;;;;;2.65;2.30;;;22.30;99.90;;;;;;5014806;28;20079;-86
2023/08/24 06:41:25;;;;;;;3.40;1.92;;;22.30;99.90;;;;;;5014392;28;20045;-86
2023/08/24 06:43:53;;;;;;;2.55;1.80;;;22.30;99.90;;;;;;5014499;28;20067;-86
2023/08/24 06:46:19;;;;;;;2.17;1.98;;;22.30;99.90;;;;;;5014807;28;20033;-85
2023/08/24 06:48:45;;;;;;;5.65;2.10;;;22.30;99.90;;;;;;5014290;28;20046;-86
2023/08/24 06:51:11;;;;;;;4.50;1.90;;;22.30;99.90;;;;;;4997076;28;20467;-86
2023/08/24 06:53:37;;;;;;;3.22;2.00;;;22.30;99.90;;;;;;4997017;28;20088;-87
2023/08/24 06:56:03;;;;;;;4.30;2.20;;;22.30;99.90;;;;;;4997283;28;20030;-86
2023/08/24 06:58:29;;;;;;;3.85;1.73;;;22.30;99.90;;;;;;4998008;28;20074;-85
2023/08/24 07:00:55;;;;;;;5.20;2.03;;;22.30;99.90;;;;;;5018556;28;20452;-86
2023/08/24 07:03:21;;;;;;;3.13;1.92;;;22.40;99.90;;;;;;5014576;28;20116;-86
2023/08/24 07:05:46;;;;;;;2.40;2.00;;;22.40;99.90;;;;;;4988797;28;20121;-86
2023/08/24 07:08:13;;;;;;;2.90;2.10;;;22.40;99.90;;;;;;5005343;28;20438;-85
2023/08/24 07:10:39;;;;;;;3.83;2.22;;;22.50;99.90;;;;;;4988091;28;20026;-88
2023/08/24 07:13:07;;;;;;;6.05;2.90;;;22.50;99.90;;;;;;4988870;28;20084;-87
2023/08/24 07:15:34;;;;;;;3.00;2.30;;;22.60;99.90;;;;;;5004213;28;20034;-86
2023/08/24 07:18:01;;;;;;;4.72;2.33;;;22.60;99.90;;;;;;5004473;28;20037;-87
2023/08/24 07:20:26;;;;;;;4.55;2.38;;;22.70;99.90;;;;;;4988491;28;20041;-85
2023/08/24 07:22:53;;;;;;;7.25;2.40;;;22.70;99.90;;;;;;4987361;28;20026;-86
2023/08/24 07:25:21;;;;;;;4.53;2.05;;;22.80;99.90;;;;;;4987295;28;20026;-86
2023/08/24 07:27:47;;;;;;;4.57;2.22;;;22.80;99.90;;;;;;4988304;28;20323;-87
2023/08/24 07:30:13;;;;;;;3.97;2.35;;;22.80;99.90;;;;;;4986970;28;20124;-86
2023/08/24 07:32:38;;;;;;;4.97;2.42;;;22.90;99.90;;;;;;5005277;28;20035;-86
2023/08/24 07:35:06;;;;;;;5.88;2.40;;;22.90;99.90;;;;;;4990350;28;20030;-86
2023/08/24 07:37:32;;;;;;;4.05;2.30;;;23.00;99.90;;;;;;4988265;28;20040;-86
2023/08/24 07:39:57;;;;;;;4.65;2.13;;;23.00;99.90;;;;;;5004945;28;20022;-86
2023/08/24 07:42:23;;;;;;;3.25;2.22;;;23.00;99.90;;;;;;5006332;28;20085;-86
2023/08/24 07:44:49;;;;;;;5.85;2.70;;;23.10;99.90;;;;;;5005537;28;20053;-87
2023/08/24 07:47:15;;;;;;;3.92;2.10;;;23.20;99.90;;;;;;4989213;28;20107;-86
2023/08/24 07:49:44;;;;;;;4.43;1.90;;;23.20;99.90;;;;;;4988496;28;20030;-87
2023/08/24 07:52:11;;;;;;;8.05;2.25;;;23.20;99.90;;;;;;5007071;28;20025;-86
2023/08/24 07:54:36;;;;;;;6.28;2.60;;;23.30;99.90;;;;;;5005514;28;20038;-87
2023/08/24 07:57:02;;;;;;;3.58;2.15;;;23.40;99.90;;;;;;5005682;28;20080;-85
2023/08/24 07:59:28;;;;;;;5.03;2.10;;;23.40;99.90;;;;;;4987829;28;20068;-86
2023/08/24 08:01:53;;;;;;;3.65;2.10;;;23.50;99.90;;;;;;5005016;28;20026;-86
2023/08/24 08:04:19;;;;;;;5.47;2.10;;;23.50;99.90;;;;;;5006230;28;20043;-86
2023/08/24 08:06:44;;;;;;;3.63;2.25;;;23.60;99.90;;;;;;5005085;28;20460;-87
2023/08/24 08:09:10;;;;;;;6.95;2.08;;;23.50;99.90;;;;;;4987424;28;20034;-86
2023/08/24 08:11:36;;;;;;;5.88;2.05;;;23.60;99.90;;;;;;4987675;28;20224;-86
2023/08/24 08:14:02;;;;;;;7.28;2.30;;;23.60;99.90;;;;;;4989060;28;20025;-85
2023/08/24 08:16:27;;;;;;;5.38;2.22;;;23.70;99.90;;;;;;4988515;28;20395;-86
2023/08/24 08:18:53;;;;;;;4.30;2.35;;;23.70;99.80;;;;;;4987611;28;20046;-86
2023/08/24 08:21:19;;;;;;;6.05;2.72;;;23.70;99.80;;;;;;4988496;28;20455;-85
2023/08/24 08:23:45;;;;;;;3.00;2.20;;;23.70;99.90;;;;;;4988046;28;20026;-86
2023/08/24 08:26:12;;;;;;;3.75;2.20;;;23.80;99.90;;;;;;4988460;28;20517;-86
2023/08/24 08:28:37;;;;;;;3.03;1.88;;;23.80;99.90;;;;;;4988593;28;20042;-86
2023/08/24 08:31:03;;;;;;;5.80;2.50;;;23.90;99.90;;;;;;5005781;28;20026;-86
2023/08/24 08:33:29;;;;;;;3.03;2.10;;;23.90;99.90;;;;;;4988279;28;20021;-86
2023/08/24 08:35:55;;;;;;;4.82;2.47;;;23.90;99.90;;;;;;5005617;28;20069;-85
2023/08/24 08:38:25;;;;;;;4.68;2.50;;;24.00;99.90;;;;;;5005036;28;20030;-87
2023/08/24 08:40:53;;;;;;;4.38;1.90;;;24.00;99.90;;;;;;4988552;28;20424;-86
2023/08/24 08:43:21;;;;;;;5.50;2.40;;;24.10;99.90;;;;;;4996132;28;20168;-87
2023/08/24 08:45:52;;;;;;;5.07;2.15;;;24.10;99.90;;;;;;4995273;28;20092;-86
2023/08/24 08:48:19;;;;;;;6.15;2.40;;;24.20;99.90;;;;;;5004196;28;20042;-87
2023/08/24 08:50:48;;;;;;;4.15;1.95;;;24.20;99.90;;;;;;5004273;28;20034;-88
2023/08/24 08:53:15;;;;;;;6.43;2.38;;;24.30;99.90;;;;;;4995922;28;20030;-87
2023/08/24 08:55:41;;;;;;;4.85;1.95;;;24.30;99.70;;;;;;4996025;28;20037;-87
2023/08/24 08:58:08;;;;;;;4.07;1.88;;;24.30;99.60;;;;;;4996251;28;20034;-87
2023/08/24 09:00:34;;;;;;;2.97;2.10;;;24.40;99.90;;;;;;4994923;28;20026;-86
2023/08/24 09:03:01;;;;;;;6.47;2.17;;;24.50;99.90;;;;;;5004818;28;20454;-87
2023/08/24 09:05:26;;;;;;;6.07;1.73;;;24.50;99.50;;;;;;4995503;28;20026;-86
2023/08/24 09:07:56;;;;;;;2.47;1.80;;;24.50;99.20;;;;;;5003704;28;20049;-86
2023/08/24 09:10:22;;;;;;;3.63;1.80;;;24.60;99.80;;;;;;4995500;28;20037;-85
2023/08/24 09:12:47;;;;;;;3.38;1.63;;;24.70;99.50;;;;;;5003583;28;20025;-86
2023/08/24 09:15:13;;;;;;;4.47;1.85;;;24.80;99.70;;;;;;4995416;28;20048;-85
2023/08/24 09:17:44;;;;;;;3.38;1.83;;;24.90;99.60;;;;;;4994471;28;20034;-86
2023/08/24 09:20:10;;;;;;;3.80;1.60;;;24.90;99.50;;;;;;5003790;28;20113;-86
2023/08/24 09:22:41;;;;;;;2.20;2.00;;;25.10;99.40;;;;;;4994491;28;20094;-86
2023/08/24 09:25:09;;;;;;;3.93;1.93;;;25.10;99.20;;;;;;4995702;28;20337;-87
2023/08/24 09:27:35;;;;;;;5.13;2.20;;;25.20;99.40;;;;;;4994071;28;20645;-86
2023/08/24 09:30:00;;;;;;;8.25;1.90;;;25.20;99.50;;;;;;5004942;28;20102;-88
2023/08/24 09:32:34;;;;;;;4.22;2.17;;;25.30;99.80;;;;;;4995405;28;20022;-86
2023/08/24 09:35:21;;;;;;;3.30;2.10;;;25.30;99.70;;;;;;4994419;28;20084;-87
2023/08/24 09:37:49;;;;;;;8.18;2.70;;;25.40;99.30;;;;;;4994677;28;20041;-87
2023/08/24 09:40:15;;;;;;;8.60;2.50;;;25.40;99.50;;;;;;4994987;28;20029;-86
2023/08/24 09:42:42;;;;;;;6.75;2.40;;;25.40;99.70;;;;;;5004116;28;20046;-86
2023/08/24 09:45:12;;;;;;;5.90;2.33;;;25.60;99.60;;;;;;5003039;28;20072;-86
2023/08/24 09:47:38;;;;;;;4.22;2.20;;;25.60;99.50;;;;;;5003795;28;20072;-87
2023/08/24 09:50:04;;;;;;;3.42;2.17;;;25.80;99.10;;;;;;4986192;28;20061;-86
2023/08/24 09:52:34;;;;;;;3.45;2.28;;;25.90;98.90;;;;;;4985011;28;20044;-87
2023/08/24 09:55:05;;;;;;;5.80;2.60;;;26.00;98.80;;;;;;5001248;28;20037;-87
2023/08/24 09:57:41;;;;;;;5.90;2.17;;;26.00;98.60;;;;;;4985097;28;20109;-87
2023/08/24 10:00:14;;;;;;;6.18;2.65;;;26.20;99.20;;;;;;4986708;28;20040;-86
2023/08/24 10:02:52;;;;;;;4.10;2.42;;;26.30;98.30;;;;;;5000290;28;20091;-86
2023/08/24 10:05:20;;;;;;;5.18;2.58;;;26.40;99.00;;;;;;5000904;28;20057;-87
2023/08/24 10:07:55;;;;;;;8.57;2.47;;;26.50;99.10;;;;;;5001789;28;20069;-87
2023/08/24 10:10:24;;;;;;;6.50;2.13;;;26.60;98.70;;;;;;4984226;28;20376;-87
2023/08/24 10:13:00;;;;;;;13.20;2.58;;;26.60;98.50;;;;;;5000909;28;20027;-86
2023/08/24 10:15:26;;;;;;;5.55;2.40;;;26.60;98.40;;;;;;5001384;28;20109;-86
2023/08/24 10:17:53;;;;;;;6.28;3.03;;;26.70;98.80;;;;;;5001889;28;20076;-88
2023/08/24 10:20:20;;;;;;;3.65;2.30;;;26.80;98.30;;;;;;5001350;28;20041;-86
2023/08/24 10:22:47;;;;;;;5.53;2.60;;;26.80;98.70;;;;;;5002789;28;20026;-86
2023/08/24 10:25:13;;;;;;;5.13;2.70;;;26.80;98.70;;;;;;4983988;28;20030;-87
2023/08/24 10:27:43;;;;;;;6.35;2.47;;;26.80;98.80;;;;;;4984659;28;20113;-86
2023/08/24 10:30:12;;;;;;;2.93;2.40;;;26.80;99.20;;;;;;4986190;28;20034;-87
2023/08/24 10:32:39;;;;;;;5.45;2.50;;;26.90;98.80;;;;;;4983683;28;20264;-86
2023/08/24 10:35:05;;;;;;;5.57;2.70;;;26.90;99.00;;;;;;4986438;28;20033;-87
2023/08/24 10:37:34;;;;;;;3.30;2.20;;;27.00;98.70;;;;;;5003327;28;20533;-88
2023/08/24 10:40:00;;;;;;;4.80;2.35;;;27.10;98.90;;;;;;4985026;28;20050;-86
2023/08/24 10:42:26;;;;;;;5.05;2.58;;;27.10;98.30;;;;;;5002298;28;20042;-87
2023/08/24 10:44:52;;;;;;;5.78;2.50;;;27.20;98.30;;;;;;5002036;28;20029;-87
2023/08/24 10:47:22;;;;;;;6.47;2.67;;;27.30;98.90;;;;;;4982593;28;20027;-86
2023/08/24 10:49:54;;;;;;;3.00;2.70;;;27.30;98.40;;;;;;5001282;28;20066;-85
2023/08/24 10:52:21;;;;;;;2.85;2.33;;;27.30;98.90;;;;;;4985336;28;20358;-89
2023/08/24 10:54:48;;;;;;;5.15;2.83;;;27.40;98.90;;;;;;4983624;28;20037;-89
2023/08/24 10:57:39;;;;;;;5.63;2.78;;;27.50;98.20;;;;;;4985021;28;20049;-87
2023/08/24 11:00:12;;;;;;;8.38;3.13;;;27.40;98.50;;;;;;4979352;28;20041;-88
2023/08/24 11:02:47;;;;;;;3.00;2.70;;;27.50;98.30;;;;;;5001095;28;20552;-87
2023/08/24 11:05:24;;;;;;;4.47;2.90;;;27.50;98.70;;;;;;4999779;28;20081;-89
2023/08/24 11:08:01;;;;;;;7.38;3.22;;;27.50;98.70;;;;;;4984236;28;20026;-88
2023/08/24 11:10:46;;;;;;;4.63;3.00;;;27.60;98.10;;;;;;4984980;28;20030;-89
2023/08/24 11:13:16;;;;;;;6.72;2.88;;;27.70;98.50;;;;;;4982817;28;20027;-89
2023/08/24 11:15:43;;;;;;;3.73;3.07;;;27.80;97.80;;;;;;4985918;28;20117;-88
2023/08/24 11:18:12;;;;;;;3.45;2.80;;;27.80;98.30;;;;;;5001410;28;20077;-89
2023/08/24 11:20:43;;;;;;;4.95;2.50;;;27.90;98.40;;;;;;5000349;28;20042;-88
2023/08/24 11:23:09;;;;;;;4.28;2.75;;;28.10;97.80;;;;;;4982423;28;20109;-86
2023/08/24 11:25:38;;;;;;;4.10;2.80;;;28.20;97.90;;;;;;4984808;28;20034;-88
2023/08/24 11:28:05;;;;;;;5.78;2.90;;;28.30;97.80;;;;;;5000479;28;20034;-88
2023/08/24 11:30:34;;;;;;;5.85;2.80;;;28.30;97.90;;;;;;5000962;28;20034;-88
2023/08/24 11:33:01;;;;;;;3.58;2.80;;;28.40;98.30;;;;;;4984555;28;20038;-86
2023/08/24 11:35:26;;;;;;;4.95;2.90;;;28.50;97.70;;;;;;4984700;28;20050;-86
2023/08/24 11:37:53;;;;;;;4.70;2.42;;;28.50;97.50;;;;;;5000137;28;20498;-86
2023/08/24 11:40:20;;;;;;;4.22;2.72;;;28.70;97.40;;;;;;4983624;28;20034;-86
2023/08/24 11:42:46;;;;;;;7.25;2.78;;;28.90;97.90;;;;;;4985159;28;20045;-87
2023/08/24 11:45:14;;;;;;;4.57;2.80;;;29.10;97.50;;;;;;5003928;28;20030;-86
2023/08/24 11:47:40;;;;;;;3.78;2.47;;;29.20;96.90;;;;;;4986489;28;20033;-86
2023/08/24 11:50:07;;;;;;;5.90;3.03;;;29.30;97.30;;;;;;4987413;28;20041;-86
2023/08/24 11:52:39;;;;;;;9.10;3.17;;;29.40;96.90;;;;;;5006048;28;20026;-86
2023/08/24 11:55:06;;;;;;;4.88;2.95;;;29.50;96.40;;;;;;4986818;28;20037;-86
2023/08/24 11:57:34;;;;;;;6.30;2.75;;;29.70;96.30;;;;;;5005391;28;20033;-86
2023/08/24 12:00:01;;;;;;;4.93;3.00;;;29.90;95.90;;;;;;5003712;28;20030;-87
2023/08/24 12:02:27;;;;;;;4.93;3.10;;;30.10;96.00;;;;;;5003540;28;20102;-86
2023/08/24 12:04:53;;;;;;;4.13;2.90;;;30.20;95.70;;;;;;4987049;28;20026;-86
2023/08/24 12:07:21;;;;;;;7.03;3.17;;;30.20;95.40;;;;;;4987622;28;20076;-86
2023/08/24 12:09:47;;;;;;;9.20;2.80;;;30.30;95.30;;;;;;4987539;28;20038;-85
2023/08/24 12:12:13;;;;;;;4.22;2.83;;;30.30;95.20;;;;;;5004346;28;20486;-86
2023/08/24 12:14:43;;;;;;;8.02;3.30;;;30.40;95.10;;;;;;5004388;28;20030;-86
2023/08/24 12:17:09;;;;;;;6.45;3.33;;;30.40;95.00;;;;;;5003484;28;20057;-86
2023/08/24 12:19:35;;;;;;;5.97;2.92;;;30.50;94.90;;;;;;5004368;28;20042;-86
2023/08/24 12:22:01;;;;;;;4.10;2.70;;;30.70;95.10;;;;;;5004132;28;20380;-86
2023/08/24 12:24:26;;;;;;;8.57;3.22;;;30.80;95.30;;;;;;5003219;28;20026;-87
2023/08/24 12:26:57;;;;;;;5.45;3.33;;;30.90;95.00;;;;;;4988220;28;20076;-86
2023/08/24 12:29:23;;;;;;;5.47;2.95;;;31.00;94.70;;;;;;5000735;28;20030;-87
2023/08/24 12:31:48;;;;;;;4.32;3.20;;;31.00;94.70;;;;;;4987437;28;20137;-85
2023/08/24 12:34:15;;;;;;;4.50;3.15;;;31.00;94.80;;;;;;4988036;28;20029;-86
2023/08/24 12:36:43;;;;;;;8.55;3.67;;;31.10;94.90;;;;;;4987016;28;20112;-88
2023/08/24 12:39:12;;;;;;;6.38;3.20;;;31.10;94.80;;;;;;5003132;28;20041;-88
2023/08/24 12:41:38;;;;;;;3.97;3.58;;;31.10;94.20;;;;;;5002068;28;20050;-88
2023/08/24 12:44:07;;;;;;;6.35;3.30;;;31.20;94.20;;;;;;5003381;28;20033;-87